Time;durP1;ratioP1;P1;durP2;ratioP2;P2;SDS_P1;SDS_P2;PMS_P1;PMS_P2;Temp;Humidity;BMP_temperature;BMP_pressure;BME280_temperature;BME280_humidity;BME280_pressure;Samples;Min_cycle;Max_cycle;Signal;HPM_P1;HPM_P2
2021/05/25 00:00:12;;;;;;;1.92;0.60;;;;;;;10.41;70.25;100545.72;5101720;28;20070;-68
2021/05/25 00:02:39;;;;;;;1.85;0.70;;;;;;;10.40;69.70;100546.59;5102102;28;20048;-65
2021/05/25 00:05:06;;;;;;;2.50;0.57;;;;;;;10.45;69.82;100542.13;5100571;28;20039;-66
2021/05/25 00:07:33;;;;;;;5.00;1.05;;;;;;;10.47;70.39;100534.31;5103045;28;20048;-65
2021/05/25 00:09:59;;;;;;;2.90;0.80;;;;;;;10.49;70.53;100536.00;5105680;28;20047;-66
2021/05/25 00:12:25;;;;;;;2.75;0.60;;;;;;;10.41;70.30;100538.75;5110188;28;20496;-68
2021/05/25 00:14:51;;;;;;;2.72;1.20;;;;;;;10.43;70.45;100541.34;5104284;28;20055;-66
2021/05/25 00:17:17;;;;;;;4.00;0.73;;;;;;;10.45;70.78;100536.94;5102172;28;20039;-67
2021/05/25 00:19:43;;;;;;;4.90;0.88;;;;;;;10.45;70.88;100549.09;5104186;28;20095;-67
2021/05/25 00:22:11;;;;;;;3.22;0.90;;;;;;;10.42;71.16;100545.66;5111152;28;20059;-68
2021/05/25 00:24:38;;;;;;;2.13;0.70;;;;;;;10.43;71.58;100551.75;5107201;28;20134;-68
2021/05/25 00:27:05;;;;;;;4.85;1.45;;;;;;;10.41;72.29;100558.72;5103299;28;20070;-67
2021/05/25 00:29:31;;;;;;;2.75;0.77;;;;;;;10.41;73.09;100551.75;5113530;28;20051;-67
2021/05/25 00:31:57;;;;;;;3.22;0.73;;;;;;;10.37;73.27;100546.63;5111242;28;20049;-67
2021/05/25 00:34:23;;;;;;;2.60;0.75;;;;;;;10.36;72.98;100550.09;5120554;22;20137;-66
2021/05/25 00:36:49;;;;;;;4.10;1.00;;;;;;;10.31;73.06;100555.41;5091855;27;20154;-66
2021/05/25 00:39:14;;;;;;;3.95;1.00;;;;;;;10.18;72.13;100556.56;5101368;28;20513;-63
2021/05/25 00:41:42;;;;;;;2.53;0.90;;;;;;;10.16;73.96;100555.72;5104709;28;20071;-65
2021/05/25 00:44:09;;;;;;;5.97;1.50;;;;;;;10.14;72.85;100558.34;5097782;28;20055;-64
2021/05/25 00:46:35;;;;;;;2.88;0.77;;;;;;;10.17;73.21;100553.09;5101083;28;20520;-64
2021/05/25 00:49:01;;;;;;;2.85;0.90;;;;;;;10.13;73.22;100551.47;5109395;28;20044;-65
2021/05/25 00:51:27;;;;;;;3.83;0.90;;;;;;;10.08;72.92;100555.88;5099279;28;20614;-65
2021/05/25 00:53:53;;;;;;;3.30;0.88;;;;;;;10.02;72.79;100556.84;5103693;28;20416;-67
2021/05/25 00:56:19;;;;;;;4.65;0.80;;;;;;;9.98;73.43;100563.03;5100591;28;20052;-64
2021/05/25 00:58:46;;;;;;;2.83;0.60;;;;;;;9.91;73.10;100562.28;5104844;28;20177;-65
2021/05/25 01:01:12;;;;;;;3.58;0.70;;;;;;;9.89;73.07;100569.25;5101857;28;20066;-67
2021/05/25 01:03:38;;;;;;;3.85;0.90;;;;;;;9.88;72.98;100564.91;5105022;28;20513;-66
2021/05/25 01:06:04;;;;;;;2.03;0.70;;;;;;;9.83;72.97;100565.91;5110742;28;20092;-65
2021/05/25 01:08:32;;;;;;;3.63;0.90;;;;;;;9.72;72.94;100566.09;5110625;28;20036;-64
2021/05/25 01:11:02;;;;;;;2.15;0.73;;;;;;;9.75;73.84;100563.44;5112068;28;20047;-65
2021/05/25 01:13:29;;;;;;;2.78;0.95;;;;;;;9.60;72.93;100562.84;5104844;28;20052;-65
2021/05/25 01:15:57;;;;;;;3.75;0.90;;;;;;;9.60;73.14;100564.56;5101589;28;20108;-65
2021/05/25 01:18:24;;;;;;;3.67;0.57;;;;;;;9.48;73.65;100571.69;5102727;28;20106;-66
2021/05/25 01:20:51;;;;;;;4.57;1.35;;;;;;;9.57;73.48;100573.28;5111309;28;20065;-66
2021/05/25 01:23:18;;;;;;;2.08;0.88;;;;;;;9.57;73.12;100575.03;5109330;28;20425;-65
2021/05/25 01:25:46;;;;;;;1.90;0.90;;;;;;;9.54;73.27;100569.88;5103585;28;20155;-66
2021/05/25 01:28:13;;;;;;;3.75;1.15;;;;;;;9.53;73.35;100582.03;5105931;28;20131;-65
2021/05/25 01:30:42;;;;;;;3.92;1.48;;;;;;;9.52;73.32;100577.72;5104083;28;20048;-64
2021/05/25 01:33:09;;;;;;;3.45;0.85;;;;;;;9.52;73.60;100579.44;5103527;28;20124;-64
2021/05/25 01:35:36;;;;;;;2.85;0.73;;;;;;;9.54;73.87;100573.31;5103706;28;20071;-64
2021/05/25 01:38:04;;;;;;;5.82;0.68;;;;;;;9.55;73.03;100575.03;5095457;28;20054;-66
2021/05/25 01:40:31;;;;;;;2.83;0.80;;;;;;;9.55;73.19;100580.22;5096664;28;20052;-65
2021/05/25 01:42:58;;;;;;;3.80;0.95;;;;;;;9.49;73.31;100578.59;5103593;28;20058;-66
2021/05/25 01:45:26;;;;;;;6.43;1.00;;;;;;;9.51;73.32;100578.59;5101948;28;24341;-65
2021/05/25 01:47:52;;;;;;;1.77;0.60;;;;;;;9.46;72.98;100577.78;5108077;28;20058;-66
2021/05/25 01:50:19;;;;;;;4.82;0.77;;;;;;;9.41;74.00;100580.47;5111071;28;20070;-63
2021/05/25 01:52:55;;;;;;;3.10;1.00;;;;;;;9.39;74.33;100578.78;5103929;28;20047;-65
2021/05/25 01:55:27;;;;;;;5.38;0.63;;;;;;;9.39;73.53;100576.19;5101410;28;20135;-65
2021/05/25 01:57:54;;;;;;;3.00;0.75;;;;;;;9.29;74.12;100572.88;5100240;28;20058;-65
2021/05/25 02:00:20;;;;;;;3.92;0.80;;;;;;;9.26;73.62;100576.41;5100634;28;20043;-64
2021/05/25 02:02:46;;;;;;;2.75;1.30;;;;;;;9.21;74.66;100579.94;5105949;28;20644;-66
2021/05/25 02:05:12;;;;;;;3.22;0.82;;;;;;;9.23;73.56;100580.78;5111324;28;20051;-65
2021/05/25 02:07:38;;;;;;;3.53;0.80;;;;;;;9.17;73.85;100574.81;5106714;28;20135;-65
2021/05/25 02:10:05;;;;;;;3.63;0.90;;;;;;;9.22;73.97;100586.84;5098496;28;20454;-66
2021/05/25 02:12:31;;;;;;;3.15;1.23;;;;;;;9.30;73.66;100584.97;5108464;28;20517;-66
2021/05/25 02:14:58;;;;;;;2.47;0.80;;;;;;;9.22;74.62;100585.13;5102745;28;20048;-65
2021/05/25 02:17:26;;;;;;;3.28;0.80;;;;;;;9.32;74.63;100588.41;5103984;28;20504;-65
2021/05/25 02:19:52;;;;;;;3.63;0.60;;;;;;;9.28;73.95;100594.56;5102327;28;20126;-66
2021/05/25 02:22:18;;;;;;;4.53;0.80;;;;;;;9.31;73.47;100590.16;5104867;28;20392;-66
2021/05/25 02:24:44;;;;;;;3.35;0.60;;;;;;;9.21;74.38;100598.97;5102846;28;20512;-66
2021/05/25 02:27:10;;;;;;;6.55;0.90;;;;;;;9.24;74.53;100595.47;5105169;28;20489;-67
2021/05/25 02:29:36;;;;;;;2.35;0.60;;;;;;;9.31;73.95;100597.97;5105551;27;20051;-65
2021/05/25 02:32:02;;;;;;;2.75;0.70;;;;;;;9.31;74.28;100590.16;5097242;28;20695;-65
2021/05/25 02:34:28;;;;;;;2.95;1.10;;;;;;;9.34;73.66;100595.28;5101673;28;20067;-65
2021/05/25 02:36:54;;;;;;;3.67;0.85;;;;;;;9.39;73.40;100595.22;5102697;28;20171;-67
2021/05/25 02:39:20;;;;;;;3.47;0.82;;;;;;;9.36;73.66;100597.00;5096588;28;20114;-64
2021/05/25 02:41:46;;;;;;;2.22;0.70;;;;;;;9.44;72.75;100592.53;5104708;28;20236;-65
2021/05/25 02:44:12;;;;;;;4.55;0.93;;;;;;;9.37;73.22;100597.00;5111030;28;20070;-65
2021/05/25 02:46:38;;;;;;;2.08;0.82;;;;;;;9.33;73.42;100597.91;5100779;28;20489;-64
2021/05/25 02:49:05;;;;;;;2.30;0.60;;;;;;;9.36;73.26;100597.00;5103055;28;20052;-65
2021/05/25 02:51:31;;;;;;;2.65;0.70;;;;;;;9.32;73.35;100607.47;5104257;28;20097;-66
2021/05/25 02:53:57;;;;;;;1.73;0.60;;;;;;;9.31;72.90;100600.56;5098564;28;20492;-66
2021/05/25 02:56:22;;;;;;;4.18;0.85;;;;;;;9.32;73.45;100606.59;5099185;28;20165;-66
2021/05/25 02:58:48;;;;;;;3.22;0.52;;;;;;;9.37;72.79;100607.38;5098672;28;20054;-65
2021/05/25 03:01:14;;;;;;;1.48;0.50;;;;;;;9.32;73.33;100598.81;5100187;28;20509;-65
2021/05/25 03:03:40;;;;;;;1.85;0.82;;;;;;;9.25;73.66;100603.22;5096896;28;20056;-65
2021/05/25 03:06:07;;;;;;;5.00;0.70;;;;;;;9.26;72.53;100610.13;5101969;28;20151;-66
2021/05/25 03:08:33;;;;;;;1.85;0.70;;;;;;;9.29;72.23;100604.03;5103394;28;20047;-65
2021/05/25 03:10:59;;;;;;;1.58;0.40;;;;;;;9.33;72.48;100601.34;5105805;28;20044;-66
2021/05/25 03:13:25;;;;;;;4.45;0.70;;;;;;;9.27;73.25;100598.88;5105243;28;20063;-66
2021/05/25 03:15:51;;;;;;;3.00;0.60;;;;;;;9.27;72.92;100601.47;5109467;28;20071;-66
2021/05/25 03:18:17;;;;;;;2.20;0.57;;;;;;;9.27;72.91;100600.63;5103763;28;20079;-66
2021/05/25 03:20:46;;;;;;;2.80;0.60;;;;;;;9.34;73.37;100602.22;5108845;28;20092;-66
2021/05/25 03:23:13;;;;;;;1.42;0.50;;;;;;;9.37;73.24;100596.13;5104199;28;20051;-66
2021/05/25 03:25:39;;;;;;;2.05;0.60;;;;;;;9.33;72.83;100601.34;5109124;28;20043;-66
2021/05/25 03:28:06;;;;;;;5.68;0.57;;;;;;;9.33;72.37;100603.97;5102642;28;20607;-67
2021/05/25 03:30:32;;;;;;;3.28;0.65;;;;;;;9.33;73.05;100608.31;5098229;28;20052;-66
2021/05/25 03:32:58;;;;;;;2.20;0.70;;;;;;;9.38;73.07;100613.41;5093241;28;20119;-66
2021/05/25 03:35:26;;;;;;;0.98;0.40;;;;;;;9.32;72.80;100609.19;5104380;28;20105;-66
2021/05/25 03:37:52;;;;;;;5.10;0.80;;;;;;;9.31;72.80;100605.75;5099717;28;20146;-65
2021/05/25 03:40:20;;;;;;;2.15;0.70;;;;;;;9.35;73.47;100603.94;5097173;28;20129;-66
2021/05/25 03:42:46;;;;;;;2.65;0.47;;;;;;;9.36;73.01;100604.78;5101240;28;20051;-65
2021/05/25 03:45:13;;;;;;;4.47;0.65;;;;;;;9.36;72.57;100615.19;5099108;28;20055;-64
2021/05/25 03:47:40;;;;;;;2.22;0.52;;;;;;;9.31;73.54;100620.44;5099574;28;20047;-65
2021/05/25 03:50:08;;;;;;;2.28;0.60;;;;;;;9.39;73.40;100620.31;5096675;28;20201;-65
2021/05/25 03:52:35;;;;;;;5.10;0.60;;;;;;;9.37;72.62;100612.56;5095585;28;20058;-65
2021/05/25 03:55:02;;;;;;;5.70;1.13;;;;;;;9.36;73.18;100615.19;5100761;28;20039;-66
2021/05/25 04:00:15;;;;;;;7.65;1.33;;;;;;;9.36;73.56;100604.78;5103788;28;20211;-66
2021/05/25 04:02:41;;;;;;;5.10;1.00;;;;;;;9.40;73.30;100601.28;5094537;28;20134;-65
2021/05/25 04:05:08;;;;;;;1.15;0.45;;;;;;;9.43;73.52;100601.25;5095046;28;20395;-65
2021/05/25 04:07:34;;;;;;;2.28;0.63;;;;;;;9.43;73.77;100604.69;5098127;28;20039;-66
2021/05/25 04:10:00;;;;;;;3.03;0.70;;;;;;;9.50;73.53;100602.84;5100952;28;20054;-64
2021/05/25 04:12:26;;;;;;;2.20;0.70;;;;;;;9.45;73.18;100610.72;5107162;28;20083;-65
2021/05/25 04:14:53;;;;;;;1.40;0.52;;;;;;;9.45;73.15;100613.31;5106880;28;20062;-65
2021/05/25 04:17:19;;;;;;;3.58;0.70;;;;;;;9.43;73.19;100606.44;5098802;28;20069;-66
2021/05/25 04:19:44;;;;;;;3.72;0.70;;;;;;;9.42;73.41;100615.09;5102509;28;20051;-65
2021/05/25 04:22:10;;;;;;;3.13;0.70;;;;;;;9.46;72.57;100607.22;5103249;28;20575;-65
2021/05/25 04:24:36;;;;;;;4.47;0.60;;;;;;;9.45;73.18;100621.09;5104502;28;20266;-65
2021/05/25 04:27:02;;;;;;;1.58;0.60;;;;;;;9.49;72.73;100619.28;5101875;28;20153;-65
2021/05/25 04:29:28;;;;;;;4.32;0.82;;;;;;;9.48;72.91;100621.03;5104285;28;20043;-66
2021/05/25 04:31:55;;;;;;;2.20;0.70;;;;;;;9.55;73.16;100621.78;5106581;28;20100;-69
2021/05/25 04:34:21;;;;;;;3.10;0.80;;;;;;;9.62;73.14;100617.34;5102802;28;20040;-65
2021/05/25 04:36:47;;;;;;;3.25;0.80;;;;;;;9.65;72.84;100620.75;5098104;28;20388;-66
2021/05/25 04:39:13;;;;;;;2.70;0.70;;;;;;;9.77;72.62;100621.41;5100869;28;20044;-64
2021/05/25 04:41:39;;;;;;;2.78;0.60;;;;;;;9.86;71.75;100621.25;5106085;28;20091;-66
2021/05/25 04:44:05;;;;;;;1.42;0.57;;;;;;;9.80;71.81;100627.41;5099756;28;20577;-67
2021/05/25 04:46:31;;;;;;;1.67;0.50;;;;;;;9.83;72.21;100623.91;5104498;28;20107;-66
2021/05/25 04:48:58;;;;;;;2.25;0.60;;;;;;;9.76;72.27;100625.75;5098134;28;20123;-66
2021/05/25 04:51:24;;;;;;;4.28;0.93;;;;;;;9.74;72.48;100630.13;5100702;28;20048;-65
2021/05/25 04:53:50;;;;;;;4.32;0.90;;;;;;;9.77;73.02;100632.69;5105786;28;20401;-66
2021/05/25 04:56:16;;;;;;;2.58;0.60;;;;;;;9.79;73.30;100632.63;5105205;28;20485;-65
2021/05/25 04:58:42;;;;;;;1.30;0.57;;;;;;;9.82;73.99;100630.00;5105168;28;20587;-66
2021/05/25 05:01:08;;;;;;;4.25;0.82;;;;;;;9.78;74.74;100633.53;5098784;28;20086;-66
2021/05/25 05:03:34;;;;;;;1.90;0.70;;;;;;;9.74;74.72;100629.25;5096389;28;20167;-61
2021/05/25 05:06:01;;;;;;;1.35;0.52;;;;;;;9.78;75.72;100633.53;5100913;28;20051;-64
2021/05/25 05:08:27;;;;;;;2.38;0.77;;;;;;;9.75;75.61;100633.56;5101618;28;20108;-63
2021/05/25 05:10:53;;;;;;;2.55;0.80;;;;;;;9.73;76.59;100641.41;5107097;28;20492;-66
2021/05/25 05:13:19;;;;;;;3.53;1.02;;;;;;;9.74;76.45;100631.84;5104893;28;20059;-65
2021/05/25 05:15:44;;;;;;;2.83;0.63;;;;;;;9.76;76.65;100638.75;5102842;28;20055;-66
2021/05/25 05:18:10;;;;;;;4.60;0.90;;;;;;;9.86;76.37;100631.63;5106284;28;20048;-66
2021/05/25 05:20:36;;;;;;;5.72;1.50;;;;;;;10.03;76.25;100641.72;5103393;28;20103;-68
2021/05/25 05:23:03;;;;;;;5.00;1.35;;;;;;;10.07;75.79;100642.53;5106903;28;20446;-67
2021/05/25 05:25:29;;;;;;;2.53;0.70;;;;;;;10.26;75.37;100640.44;5107850;28;21197;-66
2021/05/25 05:27:55;;;;;;;6.38;0.75;;;;;;;10.26;75.62;100637.84;5107134;28;20610;-65
2021/05/25 05:30:22;;;;;;;1.20;0.60;;;;;;;10.34;74.35;100648.94;5103198;28;20084;-67
2021/05/25 05:32:48;;;;;;;5.47;0.60;;;;;;;10.35;75.41;100645.47;5103600;28;20515;-65
2021/05/25 05:35:14;;;;;;;4.65;0.90;;;;;;;10.32;75.59;100645.50;5105008;28;20076;-65
2021/05/25 05:37:40;;;;;;;3.55;0.90;;;;;;;10.36;75.08;100646.31;5103817;28;20040;-65
2021/05/25 05:40:09;;;;;;;2.38;1.00;;;;;;;10.32;74.81;100644.66;5101402;28;20172;-67
2021/05/25 05:42:35;;;;;;;4.75;1.00;;;;;;;10.20;75.37;100641.41;5098869;28;20051;-67
2021/05/25 05:45:01;;;;;;;2.58;0.80;;;;;;;10.10;75.60;100647.69;5105022;28;20055;-67
2021/05/25 05:47:27;;;;;;;4.40;1.23;;;;;;;10.08;76.13;100646.84;5097966;28;20106;-69
2021/05/25 05:49:53;;;;;;;3.83;1.20;;;;;;;10.06;76.62;100644.28;5099411;28;20109;-67
2021/05/25 05:52:19;;;;;;;3.75;0.90;;;;;;;10.04;76.61;100651.25;5096701;28;20055;-67
2021/05/25 05:54:46;;;;;;;2.65;0.93;;;;;;;10.16;76.62;100644.09;5098557;28;20048;-68
2021/05/25 05:57:12;;;;;;;3.22;1.38;;;;;;;10.25;75.97;100649.97;5100721;28;20056;-67
2021/05/25 05:59:38;;;;;;;1.98;0.77;;;;;;;10.40;75.52;100648.00;5099651;28;20101;-65
2021/05/25 06:02:04;;;;;;;4.65;1.00;;;;;;;10.57;73.79;100648.50;5103735;28;20052;-68
2021/05/25 06:04:30;;;;;;;6.28;1.00;;;;;;;10.63;74.45;100650.13;5105480;28;20077;-66
2021/05/25 06:06:56;;;;;;;3.40;1.30;;;;;;;10.65;73.40;100652.69;5093948;28;20047;-66
2021/05/25 06:09:22;;;;;;;3.63;1.00;;;;;;;10.68;74.22;100650.88;5107357;28;20544;-67
2021/05/25 06:11:52;;;;;;;3.63;1.17;;;;;;;10.77;73.83;100656.78;5103684;28;20505;-66
2021/05/25 06:14:19;;;;;;;3.30;1.42;;;;;;;10.97;73.34;100654.63;5103203;28;20048;-65
2021/05/25 06:16:45;;;;;;;6.72;1.10;;;;;;;11.05;72.15;100662.22;5105976;28;20043;-64
2021/05/25 06:19:11;;;;;;;6.25;1.23;;;;;;;11.00;72.93;100656.28;5103487;28;20070;-66
2021/05/25 06:21:38;;;;;;;7.43;1.23;;;;;;;11.01;72.46;100656.25;5103514;28;20079;-68
2021/05/25 06:24:04;;;;;;;4.30;0.80;;;;;;;10.91;72.47;100659.94;5100149;28;20043;-67
2021/05/25 06:26:30;;;;;;;2.95;0.93;;;;;;;10.86;72.81;100657.44;5101795;28;20062;-69
2021/05/25 06:28:56;;;;;;;3.80;0.88;;;;;;;10.79;72.81;100657.59;5097191;27;20166;-68
2021/05/25 06:31:23;;;;;;;3.17;1.05;;;;;;;10.75;73.19;100654.19;5098488;27;20524;-66
2021/05/25 06:33:49;;;;;;;4.90;0.82;;;;;;;10.69;74.05;100663.00;5096103;28;20092;-72
2021/05/25 06:36:15;;;;;;;2.00;0.85;;;;;;;10.45;74.69;100663.50;5096434;28;20505;-70
2021/05/25 06:38:41;;;;;;;4.53;0.90;;;;;;;10.38;74.89;100673.16;5102789;28;20039;-65
2021/05/25 06:41:07;;;;;;;3.03;0.70;;;;;;;10.35;75.22;100662.78;5100184;28;20123;-72
2021/05/25 06:43:33;;;;;;;3.13;0.60;;;;;;;10.43;75.34;100666.16;5098372;28;20157;-74
2021/05/25 06:45:59;;;;;;;4.60;1.35;;;;;;;10.65;75.45;100663.97;5096457;28;20138;-68
2021/05/25 06:48:26;;;;;;;2.80;0.95;;;;;;;10.85;75.09;100662.69;5099582;27;20178;-68
2021/05/25 06:50:52;;;;;;;1.75;0.73;;;;;;;10.99;73.89;100668.44;5106597;28;20112;-67
2021/05/25 06:53:19;;;;;;;3.00;1.02;;;;;;;11.08;72.95;100671.75;5107096;28;20146;-67
2021/05/25 06:55:45;;;;;;;5.70;0.80;;;;;;;11.10;72.78;100681.22;5106750;22;20052;-68
2021/05/25 06:58:10;;;;;;;3.28;1.00;;;;;;;10.99;72.76;100681.44;5077946;28;20083;-67
2021/05/25 07:00:37;;;;;;;2.03;0.80;;;;;;;11.02;73.56;100683.97;5080139;28;20048;-67
2021/05/25 07:03:03;;;;;;;4.15;1.08;;;;;;;11.11;71.98;100695.06;5081637;28;20386;-70
2021/05/25 07:05:30;;;;;;;2.17;0.90;;;;;;;11.08;72.29;100696.00;5077898;28;20048;-70
2021/05/25 07:07:56;;;;;;;3.72;1.20;;;;;;;10.98;72.82;100700.53;5072930;28;20424;-71
2021/05/25 07:10:22;;;;;;;2.97;1.10;;;;;;;10.82;73.28;100700.03;5070525;28;20135;-69
2021/05/25 07:12:48;;;;;;;5.15;1.23;;;;;;;10.80;72.06;100706.13;5066491;28;20414;-68
2021/05/25 07:15:15;;;;;;;3.45;1.00;;;;;;;10.82;73.10;100707.84;5061288;28;20418;-65
2021/05/25 07:17:45;;;;;;;3.70;1.55;;;;;;;10.77;73.38;100703.63;5067285;28;20040;-68
2021/05/25 07:20:12;;;;;;;5.13;1.30;;;;;;;10.92;74.15;100713.69;5061326;28;20060;-68
2021/05/25 07:22:39;;;;;;;4.93;1.35;;;;;;;11.22;74.34;100713.94;5066148;28;20055;-69
2021/05/25 07:25:06;;;;;;;5.13;1.05;;;;;;;11.61;72.95;100710.44;5065309;28;20052;-69
2021/05/25 07:27:33;;;;;;;2.78;1.17;;;;;;;11.72;69.25;100710.16;5062965;28;20047;-70
2021/05/25 07:29:59;;;;;;;2.20;1.00;;;;;;;11.55;69.82;100710.56;5066877;28;20079;-73
2021/05/25 07:32:25;;;;;;;5.40;1.00;;;;;;;11.44;70.20;100722.09;5070970;28;20045;-69
2021/05/25 07:34:51;;;;;;;1.60;0.80;;;;;;;11.69;70.05;100720.66;5071847;28;20157;-71
2021/05/25 07:37:17;;;;;;;2.58;0.93;;;;;;;11.80;68.04;100714.31;5071318;28;20044;-66
2021/05/25 07:39:44;;;;;;;4.20;1.10;;;;;;;11.99;68.60;100724.31;5067519;28;20445;-70
2021/05/25 07:42:10;;;;;;;2.95;1.00;;;;;;;12.24;67.66;100721.03;5063791;28;20059;-71
2021/05/25 07:44:36;;;;;;;4.13;1.02;;;;;;;12.14;67.86;100728.28;5065964;28;20051;-69
2021/05/25 07:47:02;;;;;;;3.50;0.90;;;;;;;12.24;66.93;100734.09;5063117;28;20053;-67
2021/05/25 07:49:28;;;;;;;2.10;0.80;;;;;;;12.38;66.99;100731.09;5059770;28;20385;-68
2021/05/25 07:51:54;;;;;;;6.72;1.67;;;;;;;12.22;65.33;100741.97;5065558;28;20563;-66
2021/05/25 07:54:20;;;;;;;3.88;1.38;;;;;;;12.02;66.07;100750.31;5058928;28;20071;-68
2021/05/25 07:56:47;;;;;;;3.88;1.15;;;;;;;11.78;66.46;100747.38;5061380;28;20113;-67
2021/05/25 07:59:13;;;;;;;2.78;0.93;;;;;;;11.59;67.39;100761.72;5057627;28;20056;-68
2021/05/25 08:01:39;;;;;;;1.50;0.80;;;;;;;11.19;66.32;100755.63;5057507;28;20056;-67
2021/05/25 08:04:05;;;;;;;2.95;1.27;;;;;;;11.07;66.78;100761.97;5062649;28;20557;-67
2021/05/25 08:06:31;;;;;;;3.08;1.17;;;;;;;10.86;67.38;100761.53;5068156;28;20048;-67
2021/05/25 08:08:57;;;;;;;3.88;1.40;;;;;;;10.95;67.44;100765.69;5067998;28;20051;-66
2021/05/25 08:11:23;;;;;;;4.93;1.25;;;;;;;11.17;67.82;100760.88;5065423;28;20129;-65
2021/05/25 08:13:50;;;;;;;3.47;1.05;;;;;;;11.45;67.50;100765.47;5068375;28;20067;-68
2021/05/25 08:16:18;;;;;;;3.28;1.30;;;;;;;11.70;66.29;100775.38;5069605;28;20041;-64
2021/05/25 08:18:52;;;;;;;2.72;0.95;;;;;;;11.89;66.39;100772.31;5063975;28;20041;-67
2021/05/25 08:21:18;;;;;;;3.38;1.23;;;;;;;12.03;65.98;100779.81;5066331;28;20072;-65
2021/05/25 08:23:44;;;;;;;2.33;1.10;;;;;;;12.14;65.07;100785.63;5065433;28;20067;-66
2021/05/25 08:26:10;;;;;;;3.50;1.10;;;;;;;12.27;66.03;100787.06;5071447;28;20059;-65
2021/05/25 08:28:36;;;;;;;2.88;1.05;;;;;;;12.34;65.02;100774.69;5064314;28;20052;-67
2021/05/25 08:31:03;;;;;;;3.88;1.13;;;;;;;12.59;65.16;100772.28;5061969;28;20044;-68
2021/05/25 08:33:29;;;;;;;2.00;1.10;;;;;;;12.72;65.17;100772.81;5066604;28;20049;-65
2021/05/25 08:35:55;;;;;;;3.00;0.90;;;;;;;13.07;64.29;100778.78;5068914;28;20068;-67
2021/05/25 08:38:23;;;;;;;4.65;1.65;;;;;;;13.17;63.73;100779.38;5065658;28;20546;-68
2021/05/25 08:40:51;;;;;;;5.88;1.65;;;;;;;13.40;64.12;100784.84;5057519;28;20048;-67
2021/05/25 08:43:17;;;;;;;2.97;1.05;;;;;;;13.46;63.09;100779.44;5057055;28;20484;-68
2021/05/25 08:45:44;;;;;;;3.63;1.20;;;;;;;13.61;62.96;100785.94;5061233;28;20048;-70
2021/05/25 08:48:12;;;;;;;4.97;1.70;;;;;;;13.57;62.82;100790.41;5059502;28;20603;-70
2021/05/25 08:50:39;;;;;;;3.97;1.30;;;;;;;13.71;63.16;100792.59;5061351;28;20175;-70
2021/05/25 08:53:06;;;;;;;7.30;1.40;;;;;;;13.79;62.89;100785.34;5066635;28;20457;-69
2021/05/25 08:55:34;;;;;;;4.72;1.48;;;;;;;13.55;61.64;100792.22;5067265;28;20041;-68
2021/05/25 08:58:00;;;;;;;3.65;1.38;;;;;;;13.32;62.24;100798.97;5062450;28;20048;-69
2021/05/25 09:00:27;;;;;;;4.70;1.90;;;;;;;12.96;63.09;100791.28;5070033;28;20040;-69
2021/05/25 09:02:53;;;;;;;6.65;1.95;;;;;;;12.95;61.95;100802.63;5064067;28;20049;-68
2021/05/25 09:05:21;;;;;;;4.25;1.70;;;;;;;13.11;63.71;100786.53;5061987;28;20049;-68
2021/05/25 09:07:49;;;;;;;5.68;1.70;;;;;;;13.15;63.01;100795.97;5066770;28;20044;-68
2021/05/25 09:10:17;;;;;;;4.78;1.77;;;;;;;13.30;63.36;100789.44;5063120;28;20048;-69
2021/05/25 09:12:45;;;;;;;4.50;2.22;;;;;;;13.19;62.20;100792.38;5056700;28;20071;-69
2021/05/25 09:15:13;;;;;;;4.47;1.48;;;;;;;12.93;63.88;100791.38;5052012;28;20048;-70
2021/05/25 09:17:39;;;;;;;5.43;1.67;;;;;;;12.81;65.68;100786.50;5048541;28;20052;-69
2021/05/25 09:20:08;;;;;;;5.57;1.50;;;;;;;12.74;65.28;100786.66;5058317;28;20060;-68
2021/05/25 09:22:37;;;;;;;4.57;1.63;;;;;;;12.67;64.79;100786.91;5059551;28;20056;-69
2021/05/25 09:25:14;;;;;;;6.50;1.60;;;;;;;12.65;64.82;100797.34;5058361;28;20052;-70
2021/05/25 09:27:42;;;;;;;3.78;1.17;;;;;;;12.72;62.85;100787.59;5057355;28;20049;-69
2021/05/25 09:30:21;;;;;;;4.47;1.60;;;;;;;12.84;64.41;100795.09;5060515;28;20057;-69
2021/05/25 09:32:53;;;;;;;6.55;1.20;;;;;;;13.29;63.87;100791.22;5061929;28;20695;-69
2021/05/25 09:35:22;;;;;;;4.72;1.70;;;;;;;13.75;62.73;100790.72;5065789;28;20076;-68
2021/05/25 09:37:50;;;;;;;5.45;1.80;;;;;;;14.18;57.94;100789.34;5057950;28;20045;-69
2021/05/25 09:40:19;;;;;;;3.85;1.33;;;;;;;14.23;60.01;100794.41;5064688;28;20059;-68
2021/05/25 09:42:47;;;;;;;6.20;1.52;;;;;;;14.35;59.94;100796.63;5060319;28;20044;-70
2021/05/25 09:45:15;;;;;;;5.63;2.08;;;;;;;14.07;59.35;100801.91;5060786;28;20044;-70
2021/05/25 09:47:42;;;;;;;5.85;1.00;;;;;;;13.48;57.97;100806.38;5056830;28;20047;-68
2021/05/25 09:50:10;;;;;;;3.28;0.77;;;;;;;13.45;57.41;100817.78;5055524;28;20083;-69
2021/05/25 09:52:56;;;;;;;1.83;0.70;;;;;;;13.40;58.47;100827.50;5052458;28;20067;-71
2021/05/25 09:55:23;;;;;;;3.60;0.82;;;;;;;13.18;60.44;100838.53;5058307;28;20584;-66
2021/05/25 09:57:50;;;;;;;4.38;1.00;;;;;;;12.98;63.29;100833.00;5057891;28;20150;-67
2021/05/25 10:00:23;;;;;;;4.35;0.90;;;;;;;12.72;64.61;100845.91;5060110;28;20060;-68
2021/05/25 10:03:04;;;;;;;4.93;1.20;;;;;;;12.50;66.60;100849.97;5060899;28;20071;-68
2021/05/25 10:05:30;;;;;;;4.10;1.00;;;;;;;12.42;65.67;100848.41;5059691;28;20132;-68
2021/05/25 10:07:56;;;;;;;3.28;1.13;;;;;;;12.27;65.94;100849.63;5061016;28;20055;-68
2021/05/25 10:10:23;;;;;;;6.45;1.83;;;;;;;12.32;65.90;100849.53;5054807;28;20052;-68
2021/05/25 10:12:51;;;;;;;7.68;1.60;;;;;;;12.53;64.87;100842.03;5052221;28;20086;-71
2021/05/25 10:15:17;;;;;;;4.93;1.85;;;;;;;12.87;65.46;100843.75;5054013;28;20052;-69
2021/05/25 10:17:56;;;;;;;4.60;1.10;;;;;;;12.98;64.49;100843.44;5058158;28;20047;-68
2021/05/25 10:20:22;;;;;;;4.93;1.50;;;;;;;12.77;65.17;100858.84;5057625;28;20076;-66
2021/05/25 10:22:48;;;;;;;6.47;1.75;;;;;;;12.81;66.99;100860.44;5061734;28;20070;-66
2021/05/25 10:25:16;;;;;;;5.30;1.67;;;;;;;12.71;66.06;100865.06;5062712;28;20128;-67
2021/05/25 10:27:44;;;;;;;8.25;2.17;;;;;;;12.56;66.80;100865.44;5065937;28;20049;-65
2021/05/25 10:30:36;;;;;;;6.00;1.27;;;;;;;12.47;67.45;100868.28;5059991;28;20052;-68
2021/05/25 10:33:32;;;;;;;5.10;1.63;;;;;;;12.56;66.15;100870.66;5063483;28;20048;-68
2021/05/25 10:36:09;;;;;;;6.68;1.80;;;;;;;12.69;66.97;100866.84;5060277;28;20549;-69
2021/05/25 10:38:54;;;;;;;5.80;1.60;;;;;;;12.73;67.53;100868.47;5062972;28;20140;-70
2021/05/25 10:41:31;;;;;;;8.25;1.95;;;;;;;12.99;67.24;100890.44;5054808;28;20052;-69
2021/05/25 10:43:58;;;;;;;11.93;2.90;;;;;;;12.48;69.94;100907.38;5058324;28;20048;-68
2021/05/25 10:46:29;;;;;;;7.55;1.80;;;;;;;11.65;72.45;100904.88;5062494;28;20048;-68
2021/05/25 10:49:12;;;;;;;7.53;2.35;;;;;;;11.38;75.49;100901.94;5062369;28;20048;-67
2021/05/25 10:52:12;;;;;;;8.75;2.58;;;;;;;11.22;76.89;100918.78;5058793;28;20053;-67
2021/05/25 10:54:46;;;;;;;5.80;1.88;;;;;;;10.72;78.85;100922.25;5059714;28;20053;-68
2021/05/25 10:57:46;;;;;;;5.03;1.58;;;;;;;10.55;77.29;100920.78;5061122;28;20044;-68
2021/05/25 11:00:16;;;;;;;6.50;2.65;;;;;;;10.60;78.72;100930.25;5058740;28;20078;-67
2021/05/25 11:02:45;;;;;;;3.85;1.60;;;;;;;10.67;78.28;100926.66;5062425;28;20049;-67
2021/05/25 11:05:51;;;;;;;6.82;2.30;;;;;;;10.75;78.24;100934.34;5060966;28;20098;-68
2021/05/25 11:08:43;;;;;;;6.15;1.75;;;;;;;10.79;78.20;100934.28;5062022;28;20044;-68
2021/05/25 11:11:14;;;;;;;5.25;2.00;;;;;;;10.88;78.48;100926.28;5062772;28;20099;-68
2021/05/25 11:13:47;;;;;;;5.90;2.25;;;;;;;11.09;77.97;100918.13;5067066;28;20493;-68
2021/05/25 11:16:17;;;;;;;8.18;2.78;;;;;;;11.38;77.87;100920.19;5064111;28;20049;-67
2021/05/25 11:18:48;;;;;;;5.22;2.67;;;;;;;11.55;78.11;100919.84;5062479;28;20049;-67
2021/05/25 11:21:45;;;;;;;4.97;2.70;;;;;;;11.95;76.09;100913.78;5058315;28;20088;-67
2021/05/25 11:24:28;;;;;;;6.28;2.70;;;;;;;12.22;74.96;100923.66;5059215;28;20060;-67
2021/05/25 11:27:04;;;;;;;8.40;3.42;;;;;;;12.52;75.16;100919.47;5060755;28;20056;-67
2021/05/25 11:29:31;;;;;;;9.52;4.07;;;;;;;12.78;74.47;100917.09;5064143;28;20056;-68
2021/05/25 11:32:01;;;;;;;7.10;3.03;;;;;;;12.88;72.92;100915.97;5060016;28;20106;-66
2021/05/25 11:34:28;;;;;;;8.82;3.40;;;;;;;12.94;73.60;100921.00;5060083;28;20071;-67